sensor_id;sensor_type;location;lat;lon;timestamp;pressure;altitude;pressure_sealevel;temperature;humidity
50349;BME280;36250;48.740;22.174;2023-05-23T00:00:59;100177.50;;;16.72;50.05
50349;BME280;36250;48.740;22.174;2023-05-23T00:03:25;100178.72;;;16.61;50.74
50349;BME280;36250;48.740;22.174;2023-05-23T00:05:50;100180.13;;;16.59;50.89
50349;BME280;36250;48.740;22.174;2023-05-23T00:08:16;100173.59;;;16.50;51.33
50349;BME280;36250;48.740;22.174;2023-05-23T00:10:42;100173.69;;;16.39;51.46
50349;BME280;36250;48.740;22.174;2023-05-23T00:13:08;100176.50;;;16.29;52.05
50349;BME280;36250;48.740;22.174;2023-05-23T00:15:34;100181.03;;;16.15;52.86
50349;BME280;36250;48.740;22.174;2023-05-23T00:18:01;100176.69;;;16.09;53.00
50349;BME280;36250;48.740;22.174;2023-05-23T00:20:26;100181.16;;;16.00;53.19
50349;BME280;36250;48.740;22.174;2023-05-23T00:22:53;100179.63;;;15.84;53.64
50349;BME280;36250;48.740;22.174;2023-05-23T00:25:18;100188.72;;;15.80;53.62
50349;BME280;36250;48.740;22.174;2023-05-23T00:27:46;100178.53;;;15.80;53.80
50349;BME280;36250;48.740;22.174;2023-05-23T00:30:11;100181.88;;;15.77;53.79
50349;BME280;36250;48.740;22.174;2023-05-23T00:32:36;100184.38;;;15.73;54.78
50349;BME280;36250;48.740;22.174;2023-05-23T00:35:02;100181.66;;;15.68;54.35
50349;BME280;36250;48.740;22.174;2023-05-23T00:37:28;100183.03;;;15.66;54.23
50349;BME280;36250;48.740;22.174;2023-05-23T00:39:53;100186.06;;;15.64;54.87
50349;BME280;36250;48.740;22.174;2023-05-23T00:42:18;100181.44;;;15.60;54.51
50349;BME280;36250;48.740;22.174;2023-05-23T00:44:44;100190.78;;;15.59;54.39
50349;BME280;36250;48.740;22.174;2023-05-23T00:47:09;100187.75;;;15.55;54.37
50349;BME280;36250;48.740;22.174;2023-05-23T00:49:38;100182.06;;;15.47;54.63
50349;BME280;36250;48.740;22.174;2023-05-23T00:52:04;100184.84;;;15.32;55.32
50349;BME280;36250;48.740;22.174;2023-05-23T00:54:29;100180.47;;;15.31;55.40
50349;BME280;36250;48.740;22.174;2023-05-23T00:56:55;100186.50;;;15.33;55.97
50349;BME280;36250;48.740;22.174;2023-05-23T00:59:23;100188.94;;;15.34;56.03
50349;BME280;36250;48.740;22.174;2023-05-23T01:01:49;100182.16;;;15.22;56.11
50349;BME280;36250;48.740;22.174;2023-05-23T01:04:15;100184.91;;;15.17;57.16
50349;BME280;36250;48.740;22.174;2023-05-23T01:06:41;100186.59;;;15.07;56.62
50349;BME280;36250;48.740;22.174;2023-05-23T01:09:12;100184.69;;;15.03;55.87
50349;BME280;36250;48.740;22.174;2023-05-23T01:11:47;100177.00;;;15.10;56.19
50349;BME280;36250;48.740;22.174;2023-05-23T01:14:20;100183.84;;;15.12;56.36
50349;BME280;36250;48.740;22.174;2023-05-23T01:16:55;100183.84;;;15.12;56.61
50349;BME280;36250;48.740;22.174;2023-05-23T01:22:07;100181.91;;;15.13;56.06
50349;BME280;36250;48.740;22.174;2023-05-23T01:24:46;100177.56;;;15.02;56.02
50349;BME280;36250;48.740;22.174;2023-05-23T01:29:56;100181.16;;;14.97;55.63
50349;BME280;36250;48.740;22.174;2023-05-23T01:32:23;100175.44;;;14.89;55.42
50349;BME280;36250;48.740;22.174;2023-05-23T01:34:52;100179.25;;;14.88;55.79
50349;BME280;36250;48.740;22.174;2023-05-23T01:37:17;100176.53;;;14.88;55.50
50349;BME280;36250;48.740;22.174;2023-05-23T01:39:44;100186.09;;;14.90;55.33
50349;BME280;36250;48.740;22.174;2023-05-23T01:42:09;100187.19;;;14.89;55.50
50349;BME280;36250;48.740;22.174;2023-05-23T01:44:35;100185.56;;;14.93;55.31
50349;BME280;36250;48.740;22.174;2023-05-23T01:47:02;100187.19;;;14.94;55.38
50349;BME280;36250;48.740;22.174;2023-05-23T01:49:28;100185.00;;;14.96;55.42
50349;BME280;36250;48.740;22.174;2023-05-23T01:51:55;100181.16;;;14.97;55.61
50349;BME280;36250;48.740;22.174;2023-05-23T01:54:20;100181.16;;;14.92;56.07
50349;BME280;36250;48.740;22.174;2023-05-23T01:56:46;100181.19;;;14.87;55.74
50349;BME280;36250;48.740;22.174;2023-05-23T01:59:12;100186.09;;;14.90;55.56
50349;BME280;36250;48.740;22.174;2023-05-23T02:01:37;100186.66;;;14.87;55.77
50349;BME280;36250;48.740;22.174;2023-05-23T02:04:03;100183.91;;;14.87;55.53
50349;BME280;36250;48.740;22.174;2023-05-23T02:06:29;100177.59;;;14.87;55.38
50349;BME280;36250;48.740;22.174;2023-05-23T02:08:55;100183.66;;;14.89;55.56
50349;BME280;36250;48.740;22.174;2023-05-23T02:11:21;100186.94;;;14.91;55.45
50349;BME280;36250;48.740;22.174;2023-05-23T02:13:46;100188.84;;;14.90;55.35
50349;BME280;36250;48.740;22.174;2023-05-23T02:16:12;100186.38;;;14.94;55.12
50349;BME280;36250;48.740;22.174;2023-05-23T02:18:38;100185.56;;;14.88;55.32
50349;BME280;36250;48.740;22.174;2023-05-23T02:21:04;100184.44;;;14.89;55.24
50349;BME280;36250;48.740;22.174;2023-05-23T02:23:29;100179.03;;;14.79;55.85
50349;BME280;36250;48.740;22.174;2023-05-23T02:25:55;100185.06;;;14.76;55.92
50349;BME280;36250;48.740;22.174;2023-05-23T02:28:20;100178.22;;;14.74;56.19
50349;BME280;36250;48.740;22.174;2023-05-23T02:30:46;100186.16;;;14.75;55.72
50349;BME280;36250;48.740;22.174;2023-05-23T02:33:11;100186.44;;;14.74;55.72
50349;BME280;36250;48.740;22.174;2023-05-23T02:35:37;100188.34;;;14.68;56.50
50349;BME280;36250;48.740;22.174;2023-05-23T02:38:03;100181.81;;;14.64;56.97
50349;BME280;36250;48.740;22.174;2023-05-23T02:40:28;100175.50;;;14.64;57.09
50349;BME280;36250;48.740;22.174;2023-05-23T02:42:53;100168.94;;;14.60;56.83
50349;BME280;36250;48.740;22.174;2023-05-23T02:45:21;100173.84;;;14.63;57.01
50349;BME280;36250;48.740;22.174;2023-05-23T02:47:47;100167.00;;;14.50;57.06
50349;BME280;36250;48.740;22.174;2023-05-23T02:50:12;100178.81;;;14.45;57.64
50349;BME280;36250;48.740;22.174;2023-05-23T02:52:38;100179.09;;;14.39;58.38
50349;BME280;36250;48.740;22.174;2023-05-23T02:55:03;100175.00;;;14.36;58.05
50349;BME280;36250;48.740;22.174;2023-05-23T02:57:29;100168.16;;;14.39;58.30
50349;BME280;36250;48.740;22.174;2023-05-23T02:59:54;100170.59;;;14.40;58.31
50349;BME280;36250;48.740;22.174;2023-05-23T03:02:20;100171.44;;;14.31;58.33
50349;BME280;36250;48.740;22.174;2023-05-23T03:04:45;100172.25;;;14.31;57.85
50349;BME280;36250;48.740;22.174;2023-05-23T03:07:11;100167.31;;;14.38;57.77
50349;BME280;36250;48.740;22.174;2023-05-23T03:09:37;100178.25;;;14.43;57.81
50349;BME280;36250;48.740;22.174;2023-05-23T03:12:03;100178.25;;;14.48;58.04
50349;BME280;36250;48.740;22.174;2023-05-23T03:14:28;100172.50;;;14.50;58.05
50349;BME280;36250;48.740;22.174;2023-05-23T03:16:54;100171.94;;;14.58;57.77
50349;BME280;36250;48.740;22.174;2023-05-23T03:19:19;100170.84;;;14.64;57.54
50349;BME280;36250;48.740;22.174;2023-05-23T03:21:44;100169.47;;;14.67;57.78
50349;BME280;36250;48.740;22.174;2023-05-23T03:24:10;100168.09;;;14.74;57.32
50349;BME280;36250;48.740;22.174;2023-05-23T03:26:35;100173.56;;;14.79;57.64
50349;BME280;36250;48.740;22.174;2023-05-23T03:29:01;100169.38;;;14.87;57.57
50349;BME280;36250;48.740;22.174;2023-05-23T03:31:26;100175.16;;;14.90;57.33
50349;BME280;36250;48.740;22.174;2023-05-23T03:33:53;100178.41;;;14.97;57.51
50349;BME280;36250;48.740;22.174;2023-05-23T03:36:18;100176.19;;;15.04;57.26
50349;BME280;36250;48.740;22.174;2023-05-23T03:38:43;100173.16;;;15.11;57.14
50349;BME280;36250;48.740;22.174;2023-05-23T03:41:09;100170.09;;;15.18;56.97
50349;BME280;36250;48.740;22.174;2023-05-23T03:43:35;100168.97;;;15.24;56.97
50349;BME280;36250;48.740;22.174;2023-05-23T03:46:00;100166.19;;;15.29;56.97
50349;BME280;36250;48.740;22.174;2023-05-23T03:48:25;100165.66;;;15.32;57.00
50349;BME280;36250;48.740;22.174;2023-05-23T03:50:51;100162.03;;;15.41;56.19
50349;BME280;36250;48.740;22.174;2023-05-23T03:53:16;100162.84;;;15.47;57.09
50349;BME280;36250;48.740;22.174;2023-05-23T03:55:41;100163.06;;;15.55;56.73
50349;BME280;36250;48.740;22.174;2023-05-23T03:58:07;100159.72;;;15.63;56.89
50349;BME280;36250;48.740;22.174;2023-05-23T04:00:32;100161.59;;;15.73;56.28
50349;BME280;36250;48.740;22.174;2023-05-23T04:02:57;100156.34;;;15.76;56.10
50349;BME280;36250;48.740;22.174;2023-05-23T04:05:23;100154.97;;;15.79;56.16
50349;BME280;36250;48.740;22.174;2023-05-23T04:07:48;100160.53;;;15.69;59.13
50349;BME280;36250;48.740;22.174;2023-05-23T04:10:15;100166.97;;;15.49;61.21
50349;BME280;36250;48.740;22.174;2023-05-23T04:12:41;100159.38;;;15.21;64.40
50349;BME280;36250;48.740;22.174;2023-05-23T04:15:07;100169.06;;;15.03;65.26
50349;BME280;36250;48.740;22.174;2023-05-23T04:17:33;100165.84;;;14.91;65.34
50349;BME280;36250;48.740;22.174;2023-05-23T04:19:59;100165.84;;;14.91;63.82
50349;BME280;36250;48.740;22.174;2023-05-23T04:22:25;100160.56;;;15.05;63.36
50349;BME280;36250;48.740;22.174;2023-05-23T04:24:50;100157.00;;;14.99;62.33
50349;BME280;36250;48.740;22.174;2023-05-23T04:27:15;100162.16;;;15.16;62.39
50349;BME280;36250;48.740;22.174;2023-05-23T04:29:41;100160.13;;;15.37;62.17
50349;BME280;36250;48.740;22.174;2023-05-23T04:32:06;100158.41;;;15.56;61.30
50349;BME280;36250;48.740;22.174;2023-05-23T04:34:32;100158.03;;;15.67;61.81
50349;BME280;36250;48.740;22.174;2023-05-23T04:36:59;100161.03;;;15.76;62.17
50349;BME280;36250;48.740;22.174;2023-05-23T04:39:26;100152.47;;;15.83;62.01
50349;BME280;36250;48.740;22.174;2023-05-23T04:41:51;100158.41;;;15.95;61.14
50349;BME280;36250;48.740;22.174;2023-05-23T04:44:18;100157.41;;;16.14;60.76
50349;BME280;36250;48.740;22.174;2023-05-23T04:46:44;100157.91;;;16.21;61.12
50349;BME280;36250;48.740;22.174;2023-05-23T04:49:10;100155.03;;;16.36;61.09
50349;BME280;36250;48.740;22.174;2023-05-23T04:51:37;100155.69;;;16.57;60.84
50349;BME280;36250;48.740;22.174;2023-05-23T04:54:02;100149.38;;;16.80;60.40
50349;BME280;36250;48.740;22.174;2023-05-23T04:56:28;100148.38;;;16.95;59.65
50349;BME280;36250;48.740;22.174;2023-05-23T04:58:53;100160.59;;;17.07;59.67
50349;BME280;36250;48.740;22.174;2023-05-23T05:01:19;100155.78;;;17.18;60.79
50349;BME280;36250;48.740;22.174;2023-05-23T05:03:45;100166.28;;;17.35;60.75
50349;BME280;36250;48.740;22.174;2023-05-23T05:06:12;100156.69;;;17.51;59.80
50349;BME280;36250;48.740;22.174;2023-05-23T05:08:37;100151.84;;;17.66;59.56
50349;BME280;36250;48.740;22.174;2023-05-23T05:11:04;100153.47;;;17.86;58.86
50349;BME280;36250;48.740;22.174;2023-05-23T05:13:30;100155.59;;;18.08;58.38
50349;BME280;36250;48.740;22.174;2023-05-23T05:15:55;100160.84;;;18.23;55.62
50349;BME280;36250;48.740;22.174;2023-05-23T05:18:21;100159.25;;;18.35;53.90
50349;BME280;36250;48.740;22.174;2023-05-23T05:20:46;100152.97;;;18.49;52.70
50349;BME280;36250;48.740;22.174;2023-05-23T05:23:11;100154.66;;;18.63;51.53
50349;BME280;36250;48.740;22.174;2023-05-23T05:25:37;100157.72;;;18.75;52.81
50349;BME280;36250;48.740;22.174;2023-05-23T05:28:02;100153.41;;;18.69;53.46
50349;BME280;36250;48.740;22.174;2023-05-23T05:30:30;100158.22;;;18.64;53.50
50349;BME280;36250;48.740;22.174;2023-05-23T05:32:57;100151.69;;;18.60;55.66
50349;BME280;36250;48.740;22.174;2023-05-23T05:35:23;100154.66;;;18.63;56.57
50349;BME280;36250;48.740;22.174;2023-05-23T05:37:48;100160.78;;;18.60;56.60
50349;BME280;36250;48.740;22.174;2023-05-23T05:40:13;100159.16;;;18.73;55.37
50349;BME280;36250;48.740;22.174;2023-05-23T05:42:39;100153.31;;;18.88;56.25
50349;BME280;36250;48.740;22.174;2023-05-23T05:45:05;100156.06;;;18.88;56.63
50349;BME280;36250;48.740;22.174;2023-05-23T05:47:30;100162.31;;;18.93;55.29
50349;BME280;36250;48.740;22.174;2023-05-23T05:49:55;100167.72;;;18.98;54.94
50349;BME280;36250;48.740;22.174;2023-05-23T05:52:21;100168.75;;;19.02;54.07
50349;BME280;36250;48.740;22.174;2023-05-23T05:54:46;100166.53;;;19.05;54.40
50349;BME280;36250;48.740;22.174;2023-05-23T05:57:13;100171.63;;;19.11;56.30
50349;BME280;36250;48.740;22.174;2023-05-23T05:59:38;100162.53;;;19.11;55.48
50349;BME280;36250;48.740;22.174;2023-05-23T06:02:03;100162.84;;;19.09;55.97
50349;BME280;36250;48.740;22.174;2023-05-23T06:04:29;100167.13;;;19.15;55.34
50349;BME280;36250;48.740;22.174;2023-05-23T06:06:55;100161.28;;;19.30;53.49
50349;BME280;36250;48.740;22.174;2023-05-23T06:09:20;100163.84;;;19.40;54.36
50349;BME280;36250;48.740;22.174;2023-05-23T06:11:45;100165.84;;;19.62;54.19
50349;BME280;36250;48.740;22.174;2023-05-23T06:14:11;100162.00;;;19.85;53.81
50349;BME280;36250;48.740;22.174;2023-05-23T06:16:36;100168.16;;;20.04;53.04
50349;BME280;36250;48.740;22.174;2023-05-23T06:19:01;100168.16;;;20.04;52.67
50349;BME280;36250;48.740;22.174;2023-05-23T06:21:27;100169.31;;;20.25;52.56
50349;BME280;36250;48.740;22.174;2023-05-23T06:23:52;100166.78;;;20.38;50.06
50349;BME280;36250;48.740;22.174;2023-05-23T06:26:18;100173.06;;;20.52;49.75
50349;BME280;36250;48.740;22.174;2023-05-23T06:28:43;100167.63;;;20.69;49.53
50349;BME280;36250;48.740;22.174;2023-05-23T06:31:08;100164.94;;;20.86;49.76
50349;BME280;36250;48.740;22.174;2023-05-23T06:33:34;100172.19;;;21.04;49.49
50349;BME280;36250;48.740;22.174;2023-05-23T06:35:59;100173.41;;;21.20;49.07
50349;BME280;36250;48.740;22.174;2023-05-23T06:38:27;100175.88;;;21.30;47.39
50349;BME280;36250;48.740;22.174;2023-05-23T06:40:53;100174.88;;;21.26;48.37
50349;BME280;36250;48.740;22.174;2023-05-23T06:43:19;100174.72;;;21.23;48.53
50349;BME280;36250;48.740;22.174;2023-05-23T06:45:45;100172.47;;;21.33;48.39
50349;BME280;36250;48.740;22.174;2023-05-23T06:48:11;100173.97;;;21.48;47.41
50349;BME280;36250;48.740;22.174;2023-05-23T06:50:37;100170.69;;;21.46;48.45
50349;BME280;36250;48.740;22.174;2023-05-23T06:53:02;100175.13;;;21.55;47.40
50349;BME280;36250;48.740;22.174;2023-05-23T06:55:27;100170.25;;;21.70;47.74
50349;BME280;36250;48.740;22.174;2023-05-23T06:57:53;100170.41;;;21.82;47.32
50349;BME280;36250;48.740;22.174;2023-05-23T07:00:18;100172.88;;;21.92;46.06
50349;BME280;36250;48.740;22.174;2023-05-23T07:02:44;100164.25;;;21.76;45.41
50349;BME280;36250;48.740;22.174;2023-05-23T07:05:15;100167.16;;;21.80;45.90
50349;BME280;36250;48.740;22.174;2023-05-23T07:07:41;100164.44;;;21.88;47.33
50349;BME280;36250;48.740;22.174;2023-05-23T07:10:07;100169.97;;;22.05;46.20
50349;BME280;36250;48.740;22.174;2023-05-23T07:12:33;100170.44;;;22.16;44.93
50349;BME280;36250;48.740;22.174;2023-05-23T07:14:58;100163.59;;;22.13;44.58
50349;BME280;36250;48.740;22.174;2023-05-23T07:17:23;100169.81;;;22.10;44.31
50349;BME280;36250;48.740;22.174;2023-05-23T07:19:49;100160.63;;;22.36;43.09
50349;BME280;36250;48.740;22.174;2023-05-23T07:22:14;100156.50;;;22.50;42.68
50349;BME280;36250;48.740;22.174;2023-05-23T07:24:40;100163.03;;;22.63;43.28
50349;BME280;36250;48.740;22.174;2023-05-23T07:27:05;100156.28;;;22.81;43.39
50349;BME280;36250;48.740;22.174;2023-05-23T07:29:31;100157.16;;;23.02;42.78
50349;BME280;36250;48.740;22.174;2023-05-23T07:31:57;100150.72;;;23.19;42.41
50349;BME280;36250;48.740;22.174;2023-05-23T07:34:23;100155.25;;;23.23;42.04
50349;BME280;36250;48.740;22.174;2023-05-23T07:36:49;100155.16;;;23.11;41.31
50349;BME280;36250;48.740;22.174;2023-05-23T07:39:14;100153.91;;;23.00;41.92
50349;BME280;36250;48.740;22.174;2023-05-23T07:41:46;100153.47;;;22.89;41.35
50349;BME280;36250;48.740;22.174;2023-05-23T07:44:11;100158.06;;;22.85;41.25
50349;BME280;36250;48.740;22.174;2023-05-23T07:46:36;100157.06;;;22.90;41.26
50349;BME280;36250;48.740;22.174;2023-05-23T07:49:01;100146.72;;;22.99;41.83
50349;BME280;36250;48.740;22.174;2023-05-23T07:51:27;100151.91;;;23.09;41.75
50349;BME280;36250;48.740;22.174;2023-05-23T07:53:52;100146.97;;;23.15;41.19
50349;BME280;36250;48.740;22.174;2023-05-23T07:56:17;100160.31;;;23.30;41.58
50349;BME280;36250;48.740;22.174;2023-05-23T07:58:43;100153.38;;;23.44;40.89
50349;BME280;36250;48.740;22.174;2023-05-23T08:01:08;100151.78;;;23.64;40.92
50349;BME280;36250;48.740;22.174;2023-05-23T08:03:33;100149.06;;;23.76;40.00
50349;BME280;36250;48.740;22.174;2023-05-23T08:05:59;100148.50;;;23.83;39.78
50349;BME280;36250;48.740;22.174;2023-05-23T08:08:24;100149.59;;;23.90;40.47
50349;BME280;36250;48.740;22.174;2023-05-23T08:10:49;100146.06;;;24.02;39.21
50349;BME280;36250;48.740;22.174;2023-05-23T08:13:15;100144.56;;;24.04;39.76
50349;BME280;36250;48.740;22.174;2023-05-23T08:15:40;100150.41;;;24.11;40.29
50349;BME280;36250;48.740;22.174;2023-05-23T08:18:05;100141.31;;;24.23;40.08
50349;BME280;36250;48.740;22.174;2023-05-23T08:20:31;100150.81;;;24.22;40.11
50349;BME280;36250;48.740;22.174;2023-05-23T08:22:57;100147.47;;;24.29;40.21
50349;BME280;36250;48.740;22.174;2023-05-23T08:25:23;100145.31;;;24.13;40.19
50349;BME280;36250;48.740;22.174;2023-05-23T08:27:49;100152.06;;;24.12;39.74
50349;BME280;36250;48.740;22.174;2023-05-23T08:30:15;100147.81;;;24.06;40.13
50349;BME280;36250;48.740;22.174;2023-05-23T08:32:40;100148.38;;;24.00;40.25
50349;BME280;36250;48.740;22.174;2023-05-23T08:35:06;100149.66;;;24.02;40.54
50349;BME280;36250;48.740;22.174;2023-05-23T08:37:31;100146.34;;;24.09;40.94
50349;BME280;36250;48.740;22.174;2023-05-23T08:39:57;100150.81;;;24.22;40.51
50349;BME280;36250;48.740;22.174;2023-05-23T08:42:22;100136.38;;;24.41;40.36
50349;BME280;36250;48.740;22.174;2023-05-23T08:44:48;100142.19;;;24.48;40.23
50349;BME280;36250;48.740;22.174;2023-05-23T08:47:14;100133.16;;;24.51;39.43
50349;BME280;36250;48.740;22.174;2023-05-23T08:49:42;100133.63;;;24.53;39.78
50349;BME280;36250;48.740;22.174;2023-05-23T08:52:11;100138.50;;;24.56;39.23
50349;BME280;36250;48.740;22.174;2023-05-23T08:54:37;100139.19;;;24.53;40.37
50349;BME280;36250;48.740;22.174;2023-05-23T08:57:03;100136.06;;;24.54;40.04
50349;BME280;36250;48.740;22.174;2023-05-23T08:59:29;100138.50;;;24.56;40.04
50349;BME280;36250;48.740;22.174;2023-05-23T09:01:56;100142.25;;;24.60;39.39
50349;BME280;36250;48.740;22.174;2023-05-23T09:04:22;100135.72;;;24.68;40.92
50349;BME280;36250;48.740;22.174;2023-05-23T09:06:47;100132.22;;;24.47;39.93
50349;BME280;36250;48.740;22.174;2023-05-23T09:09:13;100134.44;;;24.65;40.38
50349;BME280;36250;48.740;22.174;2023-05-23T09:11:38;100129.75;;;24.78;39.86
50349;BME280;36250;48.740;22.174;2023-05-23T09:14:03;100129.31;;;24.88;40.07
50349;BME280;36250;48.740;22.174;2023-05-23T09:16:33;100126.75;;;25.07;40.55
50349;BME280;36250;48.740;22.174;2023-05-23T09:18:58;100125.34;;;25.25;41.09
50349;BME280;36250;48.740;22.174;2023-05-23T09:21:33;100127.22;;;25.46;40.82
50349;BME280;36250;48.740;22.174;2023-05-23T09:23:59;100134.13;;;25.64;39.84
50349;BME280;36250;48.740;22.174;2023-05-23T09:26:24;100131.09;;;25.69;38.70
50349;BME280;36250;48.740;22.174;2023-05-23T09:28:50;100126.69;;;25.68;38.94
50349;BME280;36250;48.740;22.174;2023-05-23T09:31:15;100118.06;;;25.73;37.82
50349;BME280;36250;48.740;22.174;2023-05-23T09:33:48;100132.75;;;25.70;38.07
50349;BME280;36250;48.740;22.174;2023-05-23T09:36:14;100132.84;;;25.73;37.75
50349;BME280;36250;48.740;22.174;2023-05-23T09:38:42;100123.88;;;25.80;38.24
50349;BME280;36250;48.740;22.174;2023-05-23T09:41:08;100118.03;;;25.85;37.87
50349;BME280;36250;48.740;22.174;2023-05-23T09:43:37;100122.47;;;25.86;38.39
50349;BME280;36250;48.740;22.174;2023-05-23T09:46:09;100130.13;;;25.89;38.73
50349;BME280;36250;48.740;22.174;2023-05-23T09:48:35;100125.66;;;26.00;37.85
50349;BME280;36250;48.740;22.174;2023-05-23T09:51:07;100119.38;;;26.03;38.29
50349;BME280;36250;48.740;22.174;2023-05-23T09:53:33;100114.34;;;26.08;38.87
50349;BME280;36250;48.740;22.174;2023-05-23T09:56:01;100122.34;;;25.82;38.87
50349;BME280;36250;48.740;22.174;2023-05-23T09:58:27;100118.28;;;25.92;39.29
50349;BME280;36250;48.740;22.174;2023-05-23T10:00:55;100124.44;;;25.85;37.94
50349;BME280;36250;48.740;22.174;2023-05-23T10:03:29;100114.22;;;25.89;39.82
50349;BME280;36250;48.740;22.174;2023-05-23T10:05:57;100111.16;;;25.94;39.28
50349;BME280;36250;48.740;22.174;2023-05-23T10:08:39;100115.84;;;26.18;37.71
50349;BME280;36250;48.740;22.174;2023-05-23T10:13:40;100120.38;;;26.10;38.66
50349;BME280;36250;48.740;22.174;2023-05-23T10:16:29;100108.50;;;25.86;37.30
50349;BME280;36250;48.740;22.174;2023-05-23T10:19:02;100109.81;;;25.76;39.23
50349;BME280;36250;48.740;22.174;2023-05-23T10:21:32;100105.31;;;26.12;37.58
50349;BME280;36250;48.740;22.174;2023-05-23T10:24:02;100110.19;;;26.02;37.38
50349;BME280;36250;48.740;22.174;2023-05-23T10:26:27;100100.63;;;26.16;38.02
50349;BME280;36250;48.740;22.174;2023-05-23T10:28:53;100099.13;;;26.34;36.22
50349;BME280;36250;48.740;22.174;2023-05-23T10:31:19;100103.84;;;26.45;38.99
50349;BME280;36250;48.740;22.174;2023-05-23T10:33:54;100099.97;;;26.65;37.40
50349;BME280;36250;48.740;22.174;2023-05-23T10:36:42;100097.03;;;26.90;37.86
50349;BME280;36250;48.740;22.174;2023-05-23T10:39:20;100088.56;;;26.86;35.87
50349;BME280;36250;48.740;22.174;2023-05-23T10:41:55;100088.53;;;26.70;36.26
50349;BME280;36250;48.740;22.174;2023-05-23T10:44:27;100088.00;;;26.81;36.74
50349;BME280;36250;48.740;22.174;2023-05-23T10:47:00;100078.97;;;27.03;35.17
50349;BME280;36250;48.740;22.174;2023-05-23T10:52:07;100085.22;;;26.96;34.33
50349;BME280;36250;48.740;22.174;2023-05-23T10:54:34;100071.56;;;27.26;35.05
50349;BME280;36250;48.740;22.174;2023-05-23T10:57:04;100073.69;;;27.48;36.03
50349;BME280;36250;48.740;22.174;2023-05-23T10:59:30;100068.38;;;27.62;36.06
50349;BME280;36250;48.740;22.174;2023-05-23T11:01:56;100072.06;;;27.47;35.02
50349;BME280;36250;48.740;22.174;2023-05-23T11:04:26;100069.47;;;27.39;34.03
50349;BME280;36250;48.740;22.174;2023-05-23T11:06:53;100064.47;;;27.32;35.95
50349;BME280;36250;48.740;22.174;2023-05-23T11:09:19;100063.38;;;27.52;35.98
50349;BME280;36250;48.740;22.174;2023-05-23T11:11:59;100064.09;;;27.49;36.33
50349;BME280;36250;48.740;22.174;2023-05-23T11:19:39;100043.78;;;27.52;36.75
50349;BME280;36250;48.740;22.174;2023-05-23T11:22:19;100044.38;;;27.99;36.92
50349;BME280;36250;48.740;22.174;2023-05-23T11:24:52;100034.28;;;27.76;35.19
50349;BME280;36250;48.740;22.174;2023-05-23T11:27:38;100029.97;;;27.40;36.96
50349;BME280;36250;48.740;22.174;2023-05-23T11:32:34;100022.22;;;26.99;38.31
50349;BME280;36250;48.740;22.174;2023-05-23T11:35:03;100018.72;;;27.21;37.70
50349;BME280;36250;48.740;22.174;2023-05-23T11:37:30;100008.50;;;27.28;38.14
50349;BME280;36250;48.740;22.174;2023-05-23T11:39:56;100023.41;;;27.71;38.12
50349;BME280;36250;48.740;22.174;2023-05-23T11:42:22;100009.63;;;27.81;34.87
50349;BME280;36250;48.740;22.174;2023-05-23T11:44:49;100014.06;;;27.63;37.08
50349;BME280;36250;48.740;22.174;2023-05-23T11:47:15;100015.25;;;27.43;35.46
50349;BME280;36250;48.740;22.174;2023-05-23T11:49:44;100009.09;;;27.37;35.72
50349;BME280;36250;48.740;22.174;2023-05-23T11:52:10;100008.47;;;27.63;36.50
50349;BME280;36250;48.740;22.174;2023-05-23T11:54:35;99996.06;;;28.02;35.02
50349;BME280;36250;48.740;22.174;2023-05-23T11:57:01;99999.16;;;28.17;35.28
50349;BME280;36250;48.740;22.174;2023-05-23T11:59:27;99997.53;;;28.38;35.09
50349;BME280;36250;48.740;22.174;2023-05-23T12:01:53;99988.59;;;28.78;34.78
50349;BME280;36250;48.740;22.174;2023-05-23T12:04:19;99984.47;;;28.98;33.94
50349;BME280;36250;48.740;22.174;2023-05-23T12:06:48;99980.38;;;29.18;32.80
50349;BME280;36250;48.740;22.174;2023-05-23T12:09:15;99968.59;;;29.36;32.51
50349;BME280;36250;48.740;22.174;2023-05-23T12:11:42;99982.63;;;29.36;31.05
50349;BME280;36250;48.740;22.174;2023-05-23T12:14:12;99971.34;;;29.02;31.04
50349;BME280;36250;48.740;22.174;2023-05-23T12:16:38;99968.91;;;28.26;32.42
50349;BME280;36250;48.740;22.174;2023-05-23T12:19:04;99970.69;;;28.15;32.79
50349;BME280;36250;48.740;22.174;2023-05-23T12:21:46;99974.19;;;28.31;31.99
50349;BME280;36250;48.740;22.174;2023-05-23T12:24:16;99972.22;;;27.89;32.36
50349;BME280;36250;48.740;22.174;2023-05-23T12:29:13;99970.53;;;28.04;33.20
50349;BME280;36250;48.740;22.174;2023-05-23T12:31:38;99969.88;;;28.37;31.47
50349;BME280;36250;48.740;22.174;2023-05-23T12:34:04;99970.88;;;28.25;31.97
50349;BME280;36250;48.740;22.174;2023-05-23T12:36:29;99967.78;;;27.88;30.68
50349;BME280;36250;48.740;22.174;2023-05-23T12:39:02;99968.28;;;28.13;30.78
50349;BME280;36250;48.740;22.174;2023-05-23T12:41:28;99964.78;;;28.20;28.86
50349;BME280;36250;48.740;22.174;2023-05-23T12:43:55;99967.03;;;28.33;28.91
50349;BME280;36250;48.740;22.174;2023-05-23T12:46:22;99957.38;;;28.53;29.14
50349;BME280;36250;48.740;22.174;2023-05-23T12:48:48;99953.16;;;28.63;29.81
50349;BME280;36250;48.740;22.174;2023-05-23T12:51:14;99960.72;;;28.62;30.37
50349;BME280;36250;48.740;22.174;2023-05-23T12:53:39;99958.25;;;28.35;30.38
50349;BME280;36250;48.740;22.174;2023-05-23T12:56:05;99957.22;;;28.46;30.00
50349;BME280;36250;48.740;22.174;2023-05-23T12:58:30;99944.34;;;28.42;30.25